sensor_id;sensor_type;location;lat;lon;timestamp;pressure;altitude;pressure_sealevel;temperature;humidity
55171;BME280;41060;47.510;8.680;2023-08-12T00:00:17;97371.53;;;26.41;40.72
55171;BME280;41060;47.510;8.680;2023-08-12T00:02:44;97372.56;;;26.40;41.35
55171;BME280;41060;47.510;8.680;2023-08-12T00:05:11;97367.59;;;26.37;41.42
55171;BME280;41060;47.510;8.680;2023-08-12T00:07:42;97367.75;;;26.42;41.22
55171;BME280;41060;47.510;8.680;2023-08-12T00:10:09;97364.59;;;26.52;41.09
55171;BME280;41060;47.510;8.680;2023-08-12T00:12:38;97368.53;;;26.56;40.93
55171;BME280;41060;47.510;8.680;2023-08-12T00:15:07;97365.22;;;26.54;40.78
55171;BME280;41060;47.510;8.680;2023-08-12T00:17:36;97361.47;;;26.49;41.53
55171;BME280;41060;47.510;8.680;2023-08-12T00:20:03;97370.28;;;26.44;41.32
55171;BME280;41060;47.510;8.680;2023-08-12T00:22:32;97367.38;;;26.39;41.26
55171;BME280;41060;47.510;8.680;2023-08-12T00:24:59;97373.22;;;26.36;41.39
55171;BME280;41060;47.510;8.680;2023-08-12T00:27:25;97372.41;;;26.35;41.73
55171;BME280;41060;47.510;8.680;2023-08-12T00:29:55;97374.06;;;26.36;41.78
55171;BME280;41060;47.510;8.680;2023-08-12T00:32:22;97365.00;;;25.91;42.21
55171;BME280;41060;47.510;8.680;2023-08-12T00:34:48;97369.88;;;25.50;42.90
55171;BME280;41060;47.510;8.680;2023-08-12T00:37:15;97372.78;;;25.55;42.99
55171;BME280;41060;47.510;8.680;2023-08-12T00:39:42;97363.59;;;25.62;42.83
55171;BME280;41060;47.510;8.680;2023-08-12T00:42:09;97362.75;;;25.75;42.70
55171;BME280;41060;47.510;8.680;2023-08-12T00:44:36;97360.41;;;25.92;42.15
55171;BME280;41060;47.510;8.680;2023-08-12T00:47:04;97352.25;;;25.98;41.53
55171;BME280;41060;47.510;8.680;2023-08-12T00:49:31;97337.50;;;25.88;42.42
55171;BME280;41060;47.510;8.680;2023-08-12T00:52:03;97363.94;;;25.99;42.37
55171;BME280;41060;47.510;8.680;2023-08-12T00:54:30;97356.94;;;25.72;42.59
55171;BME280;41060;47.510;8.680;2023-08-12T00:56:57;97358.59;;;25.66;42.78
55171;BME280;41060;47.510;8.680;2023-08-12T00:59:25;97352.94;;;25.81;42.49
55171;BME280;41060;47.510;8.680;2023-08-12T01:01:52;97344.56;;;25.89;42.38
55171;BME280;41060;47.510;8.680;2023-08-12T01:04:19;97352.06;;;26.00;41.99
55171;BME280;41060;47.510;8.680;2023-08-12T01:06:46;97347.81;;;26.17;41.67
55171;BME280;41060;47.510;8.680;2023-08-12T01:09:16;97344.88;;;26.32;41.30
55171;BME280;41060;47.510;8.680;2023-08-12T01:11:51;97347.72;;;26.43;41.42
55171;BME280;41060;47.510;8.680;2023-08-12T01:14:33;97347.69;;;26.50;41.21
55171;BME280;41060;47.510;8.680;2023-08-12T01:17:06;97345.16;;;26.49;40.81
55171;BME280;41060;47.510;8.680;2023-08-12T01:19:38;97309.75;;;26.37;41.06
55171;BME280;41060;47.510;8.680;2023-08-12T01:22:09;97349.94;;;26.60;40.79
55171;BME280;41060;47.510;8.680;2023-08-12T01:24:38;97338.44;;;26.58;40.94
55171;BME280;41060;47.510;8.680;2023-08-12T01:27:06;97337.56;;;26.64;40.63
55171;BME280;41060;47.510;8.680;2023-08-12T01:29:34;97340.28;;;26.64;40.97
55171;BME280;41060;47.510;8.680;2023-08-12T01:32:08;97334.91;;;26.57;41.33
55171;BME280;41060;47.510;8.680;2023-08-12T01:34:42;97330.34;;;26.51;40.84
55171;BME280;41060;47.510;8.680;2023-08-12T01:37:20;97334.19;;;26.37;41.68
55171;BME280;41060;47.510;8.680;2023-08-12T01:39:52;97333.97;;;25.61;43.43
55171;BME280;41060;47.510;8.680;2023-08-12T01:42:21;97339.59;;;25.53;43.36
55171;BME280;41060;47.510;8.680;2023-08-12T01:44:48;97332.94;;;25.68;42.76
55171;BME280;41060;47.510;8.680;2023-08-12T01:47:16;97329.53;;;25.93;42.14
55171;BME280;41060;47.510;8.680;2023-08-12T01:49:43;97330.31;;;26.06;41.98
55171;BME280;41060;47.510;8.680;2023-08-12T01:52:09;97319.59;;;26.18;41.80
55171;BME280;41060;47.510;8.680;2023-08-12T01:54:36;97332.13;;;26.26;41.91
55171;BME280;41060;47.510;8.680;2023-08-12T01:57:05;97334.47;;;26.16;42.05
55171;BME280;41060;47.510;8.680;2023-08-12T01:59:32;97335.13;;;26.04;42.11
55171;BME280;41060;47.510;8.680;2023-08-12T02:01:59;97336.59;;;26.00;42.83
55171;BME280;41060;47.510;8.680;2023-08-12T02:04:26;97342.13;;;25.54;43.51
55171;BME280;41060;47.510;8.680;2023-08-12T02:06:53;97342.16;;;25.28;44.34
55171;BME280;41060;47.510;8.680;2023-08-12T02:09:19;97334.63;;;25.23;43.94
55171;BME280;41060;47.510;8.680;2023-08-12T02:11:47;97326.69;;;25.48;43.53
55171;BME280;41060;47.510;8.680;2023-08-12T02:14:15;97325.84;;;25.67;42.99
55171;BME280;41060;47.510;8.680;2023-08-12T02:16:42;97324.38;;;25.72;43.11
55171;BME280;41060;47.510;8.680;2023-08-12T02:19:09;97324.41;;;25.65;43.29
55171;BME280;41060;47.510;8.680;2023-08-12T02:21:35;97325.41;;;25.64;42.87
55171;BME280;41060;47.510;8.680;2023-08-12T02:24:02;97318.97;;;25.72;43.10
55171;BME280;41060;47.510;8.680;2023-08-12T02:26:29;97318.13;;;25.71;42.80
55171;BME280;41060;47.510;8.680;2023-08-12T02:28:56;97323.34;;;25.73;43.21
55171;BME280;41060;47.510;8.680;2023-08-12T02:31:24;97312.91;;;25.69;43.22
55171;BME280;41060;47.510;8.680;2023-08-12T02:33:51;97310.81;;;25.72;43.21
55171;BME280;41060;47.510;8.680;2023-08-12T02:36:17;97303.75;;;25.71;43.26
55171;BME280;41060;47.510;8.680;2023-08-12T02:38:44;97312.72;;;25.58;43.61
55171;BME280;41060;47.510;8.680;2023-08-12T02:41:11;97320.00;;;24.85;45.28
55171;BME280;41060;47.510;8.680;2023-08-12T02:43:38;97317.94;;;24.06;47.30
55171;BME280;41060;47.510;8.680;2023-08-12T02:46:04;97316.53;;;23.76;48.02
55171;BME280;41060;47.510;8.680;2023-08-12T02:48:35;97314.50;;;23.50;49.02
55171;BME280;41060;47.510;8.680;2023-08-12T02:51:01;97315.69;;;23.75;48.11
55171;BME280;41060;47.510;8.680;2023-08-12T02:53:28;97313.31;;;23.94;47.58
55171;BME280;41060;47.510;8.680;2023-08-12T02:55:55;97315.56;;;23.90;47.69
55171;BME280;41060;47.510;8.680;2023-08-12T02:58:21;97323.69;;;23.90;47.63
55171;BME280;41060;47.510;8.680;2023-08-12T03:00:48;97326.06;;;24.13;47.02
55171;BME280;41060;47.510;8.680;2023-08-12T03:03:15;97316.38;;;24.38;46.31
55171;BME280;41060;47.510;8.680;2023-08-12T03:05:45;97315.25;;;24.20;47.17
55171;BME280;41060;47.510;8.680;2023-08-12T03:08:12;97320.13;;;23.90;47.87
55171;BME280;41060;47.510;8.680;2023-08-12T03:10:39;97316.63;;;23.96;47.41
55171;BME280;41060;47.510;8.680;2023-08-12T03:13:05;97313.38;;;24.20;47.00
55171;BME280;41060;47.510;8.680;2023-08-12T03:15:32;97310.78;;;24.40;46.35
55171;BME280;41060;47.510;8.680;2023-08-12T03:17:59;97321.34;;;24.28;46.91
55171;BME280;41060;47.510;8.680;2023-08-12T03:20:26;97301.84;;;24.46;45.98
55171;BME280;41060;47.510;8.680;2023-08-12T03:22:53;97301.03;;;24.65;45.74
55171;BME280;41060;47.510;8.680;2023-08-12T03:25:20;97296.47;;;24.85;45.02
55171;BME280;41060;47.510;8.680;2023-08-12T03:27:48;97297.53;;;24.98;44.71
55171;BME280;41060;47.510;8.680;2023-08-12T03:30:14;97291.06;;;24.99;44.56
55171;BME280;41060;47.510;8.680;2023-08-12T03:32:41;97303.81;;;25.11;44.28
55171;BME280;41060;47.510;8.680;2023-08-12T03:35:08;97306.72;;;25.16;44.48
55171;BME280;41060;47.510;8.680;2023-08-12T03:37:34;97300.47;;;25.36;44.32
55171;BME280;41060;47.510;8.680;2023-08-12T03:40:04;97301.69;;;25.40;44.00
55171;BME280;41060;47.510;8.680;2023-08-12T03:42:30;97299.38;;;25.37;43.83
55171;BME280;41060;47.510;8.680;2023-08-12T03:44:57;97311.28;;;25.36;43.98
55171;BME280;41060;47.510;8.680;2023-08-12T03:47:24;97315.25;;;25.26;44.41
55171;BME280;41060;47.510;8.680;2023-08-12T03:49:50;97311.69;;;24.86;45.51
55171;BME280;41060;47.510;8.680;2023-08-12T03:52:20;97314.63;;;24.98;44.97
55171;BME280;41060;47.510;8.680;2023-08-12T03:54:48;97314.22;;;25.08;44.70
55171;BME280;41060;47.510;8.680;2023-08-12T03:57:15;97312.56;;;25.20;44.62
55171;BME280;41060;47.510;8.680;2023-08-12T03:59:42;97307.94;;;25.34;44.35
55171;BME280;41060;47.510;8.680;2023-08-12T04:02:09;97298.97;;;25.46;43.79
55171;BME280;41060;47.510;8.680;2023-08-12T04:04:38;97295.22;;;25.47;43.96
55171;BME280;41060;47.510;8.680;2023-08-12T04:07:07;97310.81;;;25.52;43.61
55171;BME280;41060;47.510;8.680;2023-08-12T04:09:34;97306.28;;;25.39;44.29
55171;BME280;41060;47.510;8.680;2023-08-12T04:12:00;97307.72;;;25.42;44.35
55171;BME280;41060;47.510;8.680;2023-08-12T04:14:28;97322.53;;;25.33;44.55
55171;BME280;41060;47.510;8.680;2023-08-12T04:16:55;97314.22;;;25.21;44.73
55171;BME280;41060;47.510;8.680;2023-08-12T04:19:22;97313.97;;;24.96;45.40
55171;BME280;41060;47.510;8.680;2023-08-12T04:21:48;97323.47;;;24.39;47.29
55171;BME280;41060;47.510;8.680;2023-08-12T04:24:16;97318.53;;;23.95;48.50
55171;BME280;41060;47.510;8.680;2023-08-12T04:26:43;97318.59;;;24.22;47.21
55171;BME280;41060;47.510;8.680;2023-08-12T04:29:09;97313.59;;;24.25;47.60
55171;BME280;41060;47.510;8.680;2023-08-12T04:31:37;97307.22;;;24.39;46.86
55171;BME280;41060;47.510;8.680;2023-08-12T04:34:04;97309.44;;;24.16;47.58
55171;BME280;41060;47.510;8.680;2023-08-12T04:36:30;97311.28;;;24.09;47.99
55171;BME280;41060;47.510;8.680;2023-08-12T04:38:58;97306.63;;;23.90;48.41
55171;BME280;41060;47.510;8.680;2023-08-12T04:41:24;97309.13;;;23.57;49.66
55171;BME280;41060;47.510;8.680;2023-08-12T04:43:51;97318.28;;;23.56;49.20
55171;BME280;41060;47.510;8.680;2023-08-12T04:46:18;97316.22;;;23.92;48.12
55171;BME280;41060;47.510;8.680;2023-08-12T04:48:46;97317.78;;;24.21;47.73
55171;BME280;41060;47.510;8.680;2023-08-12T04:51:12;97317.88;;;23.93;48.47
55171;BME280;41060;47.510;8.680;2023-08-12T04:53:40;97322.34;;;23.73;49.25
55171;BME280;41060;47.510;8.680;2023-08-12T04:56:06;97314.19;;;23.38;50.34
55171;BME280;41060;47.510;8.680;2023-08-12T04:58:33;97321.63;;;23.58;49.30
55171;BME280;41060;47.510;8.680;2023-08-12T05:01:01;97317.03;;;23.93;48.34
55171;BME280;41060;47.510;8.680;2023-08-12T05:03:28;97311.31;;;24.15;48.02
55171;BME280;41060;47.510;8.680;2023-08-12T05:05:56;97313.47;;;23.86;48.68
55171;BME280;41060;47.510;8.680;2023-08-12T05:08:23;97307.91;;;24.00;48.18
55171;BME280;41060;47.510;8.680;2023-08-12T05:10:50;97311.13;;;24.24;47.52
55171;BME280;41060;47.510;8.680;2023-08-12T05:13:17;97308.09;;;24.46;46.94
55171;BME280;41060;47.510;8.680;2023-08-12T05:15:45;97303.53;;;24.60;46.66
55171;BME280;41060;47.510;8.680;2023-08-12T05:18:12;97311.69;;;24.73;46.37
55171;BME280;41060;47.510;8.680;2023-08-12T05:20:39;97306.91;;;24.75;46.79
55171;BME280;41060;47.510;8.680;2023-08-12T05:23:09;97278.97;;;24.68;46.13
55171;BME280;41060;47.510;8.680;2023-08-12T05:25:35;97308.13;;;24.92;46.32
55171;BME280;41060;47.510;8.680;2023-08-12T05:28:02;97316.44;;;24.65;47.00
55171;BME280;41060;47.510;8.680;2023-08-12T05:30:29;97329.19;;;24.10;48.36
55171;BME280;41060;47.510;8.680;2023-08-12T05:32:55;97318.97;;;24.05;48.40
55171;BME280;41060;47.510;8.680;2023-08-12T05:35:22;97312.84;;;24.38;47.64
55171;BME280;41060;47.510;8.680;2023-08-12T05:37:49;97300.19;;;24.58;46.95
55171;BME280;41060;47.510;8.680;2023-08-12T05:40:17;97310.22;;;24.77;46.33
55171;BME280;41060;47.510;8.680;2023-08-12T05:42:43;97315.22;;;24.74;47.17
55171;BME280;41060;47.510;8.680;2023-08-12T05:45:10;97314.88;;;24.29;48.17
55171;BME280;41060;47.510;8.680;2023-08-12T05:47:37;97326.50;;;24.16;48.82
55171;BME280;41060;47.510;8.680;2023-08-12T05:50:04;97323.81;;;24.23;48.35
55171;BME280;41060;47.510;8.680;2023-08-12T05:52:34;97315.78;;;24.49;47.40
55171;BME280;41060;47.510;8.680;2023-08-12T05:55:00;97288.53;;;24.51;47.20
55171;BME280;41060;47.510;8.680;2023-08-12T05:57:28;97313.94;;;24.70;47.71
55171;BME280;41060;47.510;8.680;2023-08-12T05:59:55;97329.03;;;24.25;49.04
55171;BME280;41060;47.510;8.680;2023-08-12T06:02:21;97329.56;;;24.00;49.53
55171;BME280;41060;47.510;8.680;2023-08-12T06:04:48;97324.53;;;23.97;49.60
55171;BME280;41060;47.510;8.680;2023-08-12T06:07:15;97332.78;;;23.83;50.01
55171;BME280;41060;47.510;8.680;2023-08-12T06:09:41;97328.44;;;23.88;49.71
55171;BME280;41060;47.510;8.680;2023-08-12T06:12:08;97324.69;;;23.89;49.90
55171;BME280;41060;47.510;8.680;2023-08-12T06:14:37;97327.78;;;24.27;48.79
55171;BME280;41060;47.510;8.680;2023-08-12T06:17:03;97329.34;;;24.56;47.87
55171;BME280;41060;47.510;8.680;2023-08-12T06:19:30;97316.88;;;24.81;47.37
55171;BME280;41060;47.510;8.680;2023-08-12T06:21:57;97327.59;;;24.35;49.08
55171;BME280;41060;47.510;8.680;2023-08-12T06:24:24;97302.31;;;24.02;49.28
55171;BME280;41060;47.510;8.680;2023-08-12T06:26:50;97319.00;;;24.18;49.67
55171;BME280;41060;47.510;8.680;2023-08-12T06:29:17;97327.91;;;24.06;49.87
55171;BME280;41060;47.510;8.680;2023-08-12T06:31:45;97327.25;;;23.97;50.09
55171;BME280;41060;47.510;8.680;2023-08-12T06:34:12;97319.63;;;24.14;49.25
55171;BME280;41060;47.510;8.680;2023-08-12T06:36:39;97326.50;;;24.16;49.14
55171;BME280;41060;47.510;8.680;2023-08-12T06:39:05;97317.34;;;24.17;48.86
55171;BME280;41060;47.510;8.680;2023-08-12T06:41:32;97328.06;;;23.98;49.99
55171;BME280;41060;47.510;8.680;2023-08-12T06:43:59;97323.50;;;23.98;50.16
55171;BME280;41060;47.510;8.680;2023-08-12T06:46:26;97326.84;;;24.00;49.99
55171;BME280;41060;47.510;8.680;2023-08-12T06:48:55;97324.97;;;24.01;50.27
55171;BME280;41060;47.510;8.680;2023-08-12T06:51:22;97321.38;;;23.87;50.93
55171;BME280;41060;47.510;8.680;2023-08-12T06:53:48;97323.81;;;23.75;51.29
55171;BME280;41060;47.510;8.680;2023-08-12T06:56:14;97325.94;;;23.80;50.95
55171;BME280;41060;47.510;8.680;2023-08-12T06:58:42;97329.47;;;23.81;51.13
55171;BME280;41060;47.510;8.680;2023-08-12T07:01:08;97309.47;;;23.75;51.38
55171;BME280;41060;47.510;8.680;2023-08-12T07:03:34;97325.03;;;24.14;50.33
55171;BME280;41060;47.510;8.680;2023-08-12T07:06:03;97322.09;;;24.02;50.94
55171;BME280;41060;47.510;8.680;2023-08-12T07:08:29;97320.59;;;24.00;51.02
55171;BME280;41060;47.510;8.680;2023-08-12T07:10:57;97325.53;;;23.90;50.77
55171;BME280;41060;47.510;8.680;2023-08-12T07:13:24;97329.72;;;23.92;51.78
55171;BME280;41060;47.510;8.680;2023-08-12T07:15:51;97329.97;;;24.04;51.85
55171;BME280;41060;47.510;8.680;2023-08-12T07:18:17;97326.53;;;24.30;50.68
55171;BME280;41060;47.510;8.680;2023-08-12T07:20:44;97338.28;;;24.50;50.22
55171;BME280;41060;47.510;8.680;2023-08-12T07:23:15;97328.34;;;24.77;49.68
55171;BME280;41060;47.510;8.680;2023-08-12T07:25:41;97329.59;;;24.74;48.86
55171;BME280;41060;47.510;8.680;2023-08-12T07:28:08;97318.13;;;24.92;48.62
55171;BME280;41060;47.510;8.680;2023-08-12T07:30:37;97319.59;;;24.94;48.47
55171;BME280;41060;47.510;8.680;2023-08-12T07:33:04;97325.47;;;25.11;48.40
55171;BME280;41060;47.510;8.680;2023-08-12T07:35:31;97328.38;;;25.16;48.04
55171;BME280;41060;47.510;8.680;2023-08-12T07:37:57;97321.94;;;25.04;48.52
55171;BME280;41060;47.510;8.680;2023-08-12T07:40:25;97310.22;;;25.37;48.25
55171;BME280;41060;47.510;8.680;2023-08-12T07:42:52;97322.91;;;25.62;48.03
55171;BME280;41060;47.510;8.680;2023-08-12T07:45:19;97316.88;;;25.54;48.42
55171;BME280;41060;47.510;8.680;2023-08-12T07:47:45;97309.78;;;25.73;48.09
55171;BME280;41060;47.510;8.680;2023-08-12T07:50:12;97308.69;;;25.87;48.25
55171;BME280;41060;47.510;8.680;2023-08-12T07:52:39;97314.97;;;25.74;48.64
55171;BME280;41060;47.510;8.680;2023-08-12T07:55:08;97320.41;;;25.74;49.17
55171;BME280;41060;47.510;8.680;2023-08-12T07:57:36;97318.34;;;25.50;50.14
55171;BME280;41060;47.510;8.680;2023-08-12T08:00:03;97332.50;;;25.52;50.11
55171;BME280;41060;47.510;8.680;2023-08-12T08:02:30;97326.47;;;25.56;49.74
55171;BME280;41060;47.510;8.680;2023-08-12T08:04:57;97328.16;;;25.71;49.38
55171;BME280;41060;47.510;8.680;2023-08-12T08:07:24;97324.56;;;25.83;48.85
55171;BME280;41060;47.510;8.680;2023-08-12T08:09:51;97311.38;;;25.93;48.57
55171;BME280;41060;47.510;8.680;2023-08-12T08:12:18;97319.25;;;26.08;48.40
55171;BME280;41060;47.510;8.680;2023-08-12T08:14:46;97319.63;;;26.12;47.79
55171;BME280;41060;47.510;8.680;2023-08-12T08:17:12;97318.13;;;26.29;46.98
55171;BME280;41060;47.510;8.680;2023-08-12T08:19:39;97303.53;;;26.23;46.60
55171;BME280;41060;47.510;8.680;2023-08-12T08:22:06;97336.19;;;26.48;46.24
55171;BME280;41060;47.510;8.680;2023-08-12T08:24:32;97335.09;;;26.56;45.74
55171;BME280;41060;47.510;8.680;2023-08-12T08:26:59;97342.00;;;26.58;45.67
55171;BME280;41060;47.510;8.680;2023-08-12T08:29:26;97353.28;;;26.62;46.02
55171;BME280;41060;47.510;8.680;2023-08-12T08:31:54;97343.38;;;26.74;45.61
55171;BME280;41060;47.510;8.680;2023-08-12T08:34:21;97352.94;;;26.83;46.86
55171;BME280;41060;47.510;8.680;2023-08-12T08:36:48;97358.28;;;26.96;47.15
55171;BME280;41060;47.510;8.680;2023-08-12T08:39:14;97356.25;;;26.92;46.90
55171;BME280;41060;47.510;8.680;2023-08-12T08:41:43;97354.63;;;27.09;45.86
55171;BME280;41060;47.510;8.680;2023-08-12T08:44:14;97355.31;;;27.04;47.29
55171;BME280;41060;47.510;8.680;2023-08-12T08:46:43;97361.16;;;27.01;47.63
55171;BME280;41060;47.510;8.680;2023-08-12T08:49:11;97369.28;;;26.76;48.86
55171;BME280;41060;47.510;8.680;2023-08-12T08:51:38;97362.28;;;26.94;48.44
55171;BME280;41060;47.510;8.680;2023-08-12T08:54:05;97373.97;;;26.94;49.01
55171;BME280;41060;47.510;8.680;2023-08-12T08:56:32;97373.09;;;27.00;48.00
55171;BME280;41060;47.510;8.680;2023-08-12T08:58:59;97378.41;;;26.89;48.54
55171;BME280;41060;47.510;8.680;2023-08-12T09:01:27;97371.94;;;27.14;48.22
55171;BME280;41060;47.510;8.680;2023-08-12T09:03:58;97371.53;;;27.42;47.42
55171;BME280;41060;47.510;8.680;2023-08-12T09:06:28;97367.09;;;27.48;45.54
55171;BME280;41060;47.510;8.680;2023-08-12T09:08:55;97371.22;;;27.57;46.09
55171;BME280;41060;47.510;8.680;2023-08-12T09:11:22;97365.06;;;27.86;45.60
55171;BME280;41060;47.510;8.680;2023-08-12T09:13:50;97362.75;;;28.08;44.56
55171;BME280;41060;47.510;8.680;2023-08-12T09:16:17;97362.22;;;28.18;43.61
55171;BME280;41060;47.510;8.680;2023-08-12T09:18:45;97370.13;;;28.38;43.49
55171;BME280;41060;47.510;8.680;2023-08-12T09:21:11;97364.19;;;28.77;41.92
55171;BME280;41060;47.510;8.680;2023-08-12T09:23:41;97337.31;;;28.92;40.55
55171;BME280;41060;47.510;8.680;2023-08-12T09:26:13;97368.13;;;29.23;40.41
55171;BME280;41060;47.510;8.680;2023-08-12T09:28:41;97371.09;;;29.21;40.03
55171;BME280;41060;47.510;8.680;2023-08-12T09:31:08;97365.97;;;29.13;40.11
55171;BME280;41060;47.510;8.680;2023-08-12T09:33:48;97371.78;;;28.87;40.88
55171;BME280;41060;47.510;8.680;2023-08-12T09:36:15;97367.00;;;28.52;40.67
55171;BME280;41060;47.510;8.680;2023-08-12T09:38:43;97380.50;;;28.47;41.05
55171;BME280;41060;47.510;8.680;2023-08-12T09:41:10;97394.66;;;28.38;41.26
55171;BME280;41060;47.510;8.680;2023-08-12T09:43:40;97388.22;;;28.32;41.07
55171;BME280;41060;47.510;8.680;2023-08-12T09:46:07;97394.72;;;28.13;41.74
55171;BME280;41060;47.510;8.680;2023-08-12T09:48:37;97395.50;;;28.02;42.16
55171;BME280;41060;47.510;8.680;2023-08-12T09:51:03;97385.09;;;27.92;41.98
55171;BME280;41060;47.510;8.680;2023-08-12T09:53:32;97396.22;;;28.27;40.78
55171;BME280;41060;47.510;8.680;2023-08-12T09:56:06;97386.59;;;28.43;40.61
55171;BME280;41060;47.510;8.680;2023-08-12T09:58:35;97393.91;;;28.30;40.33
55171;BME280;41060;47.510;8.680;2023-08-12T10:01:03;97387.44;;;28.43;40.98
55171;BME280;41060;47.510;8.680;2023-08-12T10:03:33;97399.47;;;28.35;40.95
55171;BME280;41060;47.510;8.680;2023-08-12T10:06:02;97387.97;;;28.33;41.22
55171;BME280;41060;47.510;8.680;2023-08-12T10:08:30;97387.22;;;28.45;41.62
55171;BME280;41060;47.510;8.680;2023-08-12T10:10:58;97392.53;;;28.58;41.31
55171;BME280;41060;47.510;8.680;2023-08-12T10:13:26;97395.47;;;28.86;40.67
55171;BME280;41060;47.510;8.680;2023-08-12T10:15:54;97393.06;;;29.08;40.75
55171;BME280;41060;47.510;8.680;2023-08-12T10:18:22;97378.19;;;29.22;40.55
55171;BME280;41060;47.510;8.680;2023-08-12T10:20:48;97372.88;;;29.39;40.27
55171;BME280;41060;47.510;8.680;2023-08-12T10:23:17;97370.63;;;29.59;38.89
55171;BME280;41060;47.510;8.680;2023-08-12T10:25:44;97370.78;;;29.64;38.18
55171;BME280;41060;47.510;8.680;2023-08-12T10:28:11;97377.09;;;29.76;37.50
55171;BME280;41060;47.510;8.680;2023-08-12T10:30:40;97374.13;;;29.66;37.04
55171;BME280;41060;47.510;8.680;2023-08-12T10:33:08;97393.31;;;29.36;37.25
55171;BME280;41060;47.510;8.680;2023-08-12T10:35:45;97386.84;;;29.19;38.67
55171;BME280;41060;47.510;8.680;2023-08-12T10:38:17;97392.19;;;29.26;38.78
55171;BME280;41060;47.510;8.680;2023-08-12T10:40:44;97407.50;;;29.27;38.61
55171;BME280;41060;47.510;8.680;2023-08-12T10:43:11;97405.97;;;29.01;39.16
55171;BME280;41060;47.510;8.680;2023-08-12T10:45:47;97401.44;;;28.95;38.25
55171;BME280;41060;47.510;8.680;2023-08-12T10:48:18;97397.84;;;28.83;37.75
55171;BME280;41060;47.510;8.680;2023-08-12T10:50:48;97384.56;;;28.74;38.34
55171;BME280;41060;47.510;8.680;2023-08-12T10:53:25;97400.69;;;28.76;38.48
55171;BME280;41060;47.510;8.680;2023-08-12T10:55:56;97412.88;;;28.85;38.19
55171;BME280;41060;47.510;8.680;2023-08-12T10:58:27;97417.59;;;29.08;38.35
55171;BME280;41060;47.510;8.680;2023-08-12T11:00:56;97415.94;;;29.07;38.38
55171;BME280;41060;47.510;8.680;2023-08-12T11:03:23;97415.81;;;29.02;38.46
55171;BME280;41060;47.510;8.680;2023-08-12T11:05:50;97403.72;;;28.98;38.54
55171;BME280;41060;47.510;8.680;2023-08-12T11:08:24;97410.88;;;28.81;39.15
55171;BME280;41060;47.510;8.680;2023-08-12T11:10:54;97406.22;;;28.69;38.64
55171;BME280;41060;47.510;8.680;2023-08-12T11:13:20;97405.59;;;28.67;38.57
55171;BME280;41060;47.510;8.680;2023-08-12T11:15:47;97407.03;;;28.52;37.92
55171;BME280;41060;47.510;8.680;2023-08-12T11:18:18;97402.50;;;28.46;38.19
55171;BME280;41060;47.510;8.680;2023-08-12T11:20:47;97406.59;;;28.36;38.86
55171;BME280;41060;47.510;8.680;2023-08-12T11:23:14;97398.72;;;28.47;39.64
55171;BME280;41060;47.510;8.680;2023-08-12T11:25:43;97394.88;;;28.54;40.58
55171;BME280;41060;47.510;8.680;2023-08-12T11:28:10;97392.97;;;28.55;40.81
55171;BME280;41060;47.510;8.680;2023-08-12T11:30:40;97386.31;;;28.51;41.43
55171;BME280;41060;47.510;8.680;2023-08-12T11:33:08;97363.81;;;28.55;40.96
55171;BME280;41060;47.510;8.680;2023-08-12T11:35:36;97363.06;;;28.48;42.43
55171;BME280;41060;47.510;8.680;2023-08-12T11:38:05;97371.00;;;28.50;42.52
55171;BME280;41060;47.510;8.680;2023-08-12T11:40:32;97376.78;;;28.42;43.07
55171;BME280;41060;47.510;8.680;2023-08-12T11:43:01;97371.72;;;28.45;43.21
55171;BME280;41060;47.510;8.680;2023-08-12T11:45:28;97360.59;;;28.47;43.07
55171;BME280;41060;47.510;8.680;2023-08-12T11:47:55;97354.06;;;28.48;42.60
55171;BME280;41060;47.510;8.680;2023-08-12T11:50:23;97342.81;;;28.26;43.88
55171;BME280;41060;47.510;8.680;2023-08-12T11:52:52;97355.38;;;27.90;45.18
55171;BME280;41060;47.510;8.680;2023-08-12T11:55:19;97370.75;;;27.60;47.01
55171;BME280;41060;47.510;8.680;2023-08-12T11:57:46;97378.25;;;27.65;48.91
55171;BME280;41060;47.510;8.680;2023-08-12T12:00:13;97375.53;;;27.83;49.21
55171;BME280;41060;47.510;8.680;2023-08-12T12:02:44;97364.50;;;27.78;46.32
55171;BME280;41060;47.510;8.680;2023-08-12T12:05:12;97361.56;;;27.97;45.70
55171;BME280;41060;47.510;8.680;2023-08-12T12:07:39;97364.13;;;28.17;44.50
55171;BME280;41060;47.510;8.680;2023-08-12T12:10:12;97354.50;;;28.15;42.23
55171;BME280;41060;47.510;8.680;2023-08-12T12:12:39;97347.66;;;28.42;42.35
55171;BME280;41060;47.510;8.680;2023-08-12T12:15:06;97338.09;;;28.69;42.05
55171;BME280;41060;47.510;8.680;2023-08-12T12:17:38;97327.56;;;28.85;41.97
55171;BME280;41060;47.510;8.680;2023-08-12T12:20:08;97323.00;;;29.08;43.74
55171;BME280;41060;47.510;8.680;2023-08-12T12:22:38;97331.03;;;29.22;43.86
55171;BME280;41060;47.510;8.680;2023-08-12T12:25:12;97327.13;;;29.53;43.64
55171;BME280;41060;47.510;8.680;2023-08-12T12:27:40;97330.22;;;29.68;41.84
55171;BME280;41060;47.510;8.680;2023-08-12T12:30:08;97314.56;;;29.75;41.42
55171;BME280;41060;47.510;8.680;2023-08-12T12:32:35;97318.25;;;29.80;40.27
55171;BME280;41060;47.510;8.680;2023-08-12T12:35:03;97319.41;;;29.84;40.03
55171;BME280;41060;47.510;8.680;2023-08-12T12:37:30;97314.25;;;30.11;41.13
55171;BME280;41060;47.510;8.680;2023-08-12T12:40:02;97311.38;;;30.30;40.53
55171;BME280;41060;47.510;8.680;2023-08-12T12:42:33;97303.66;;;30.26;40.80
55171;BME280;41060;47.510;8.680;2023-08-12T12:44:59;97306.00;;;30.35;39.99
55171;BME280;41060;47.510;8.680;2023-08-12T12:47:26;97310.09;;;30.49;39.95
55171;BME280;41060;47.510;8.680;2023-08-12T12:49:53;97317.34;;;30.55;37.64
55171;BME280;41060;47.510;8.680;2023-08-12T12:52:19;97324.19;;;30.69;38.11
55171;BME280;41060;47.510;8.680;2023-08-12T12:54:47;97319.78;;;30.96;37.82
55171;BME280;41060;47.510;8.680;2023-08-12T12:57:15;97315.81;;;31.21;36.67
55171;BME280;41060;47.510;8.680;2023-08-12T12:59:43;97316.66;;;31.38;36.11
55171;BME280;41060;47.510;8.680;2023-08-12T13:02:09;97309.03;;;31.57;36.49